CYMXCYQB

Guest
Details From CYMX - Montreal Mirabel Intl
To CYQB - Quebec Jean Lesage Intl
Flight Number -
Tags Generated
Created
Modified
Stats Distance 130 nm / 241 km
Max Altitude 0 ft / 0 m
Waypoints 2
Social Downloads 0
Likes 0
Share VATSIM

Download

Looking for another format? Having issues loading an existing format? Contact us
Advertisement - Login to hide

Notes

Generated

Route

CYMX CYQB

ID Type Via Altitude Latitude Longitude Leg Dist Tot Dist Heading (true) Name
O CYMX APT - 0 ft / 0 m 45.67083˚ -74.09000˚ - 0 nm - -
O CYQB APT - 0 ft / 0 m 46.78883˚ -71.40294˚ 130 nm 130 nm 58° / 60° -

Altitude Profile

Advertisement - Login to hide

CYMX

Details ICAO CYMX (YMX)
Name Montreal Mirabel Intl
Region Canada
Timezone America/Montreal (UTC-4.0)
Stats Elevation 270 ft / 82 m (AMSL)
Location 45.675556° -74.035903°
Runways 2
Magnetic Variation 14.210° W

METAR

CYMX 202300Z 31007G16KT 260V340 45SM FEW030 FEW250 18/M00 A2999 RMK SC1CI2 SC TR SLP159 DENSITY ALT 700FT

Decode

TAF

TAF CYMX 201740Z 2018/2118 33010KT P6SM SCT030 TEMPO 2018/2019 BKN030 FM210000 29005KT P6SM FEW030 FM211400 24010G20KT P6SM SKC RMK NXT FCST BY 210000Z

Decode

Departure Runways

ID Width Length Bearing (true) Bearing (mag) Surface Threshold Offset Overrun Length
06 200 ft / 61 m 11,958 ft / 3,645 m 45.28° 59.49° Concrete 0 ft / 0 m 0 ft / 0 m
11 200 ft / 61 m 11,954 ft / 3,644 m 98.27° 112.48° Concrete 0 ft / 0 m 0 ft / 0 m
24 200 ft / 61 m 11,958 ft / 3,645 m 225.30° 239.51° Concrete 0 ft / 0 m 0 ft / 0 m
29 200 ft / 61 m 11,954 ft / 3,644 m 278.30° 292.51° Concrete 0 ft / 0 m 0 ft / 0 m

CYQB

Details ICAO CYQB (YQB)
Name Quebec Jean Lesage Intl
Region Canada
Timezone America/Montreal (UTC-4.0)
Stats Elevation 244 ft / 74 m (AMSL)
Location 46.789458° -71.392764°
Runways 2
Magnetic Variation 15.796° W

METAR

CYQB 202300Z 28005KT 250V320 30SM FEW250 18/01 A2991 RMK CI1 CI TR SLP131 DENSITY ALT 700FT

Decode

TAF

TAF CYQB 201740Z 2018/2118 34010G20KT P6SM SCT030 FM210200 28005KT P6SM SKC BECMG 2104/2106 24005KT FM211500 25010G20KT P6SM BKN050 BECMG 2116/2118 30010G20KT RMK NXT FCST BY 210000Z

Decode

Destination Runways

ID Width Length Bearing (true) Bearing (mag) Surface Threshold Offset Overrun Length
06 150 ft / 46 m 9,020 ft / 2,749 m 44.00° 59.80° Asphalt 0 ft / 0 m 0 ft / 0 m
12 150 ft / 46 m 5,678 ft / 1,731 m 97.58° 113.38° Asphalt 0 ft / 0 m 0 ft / 0 m
24 150 ft / 46 m 9,020 ft / 2,749 m 224.02° 239.82° Asphalt 0 ft / 0 m 0 ft / 0 m
30 150 ft / 46 m 5,678 ft / 1,731 m 277.60° 293.40° Asphalt 0 ft / 0 m 0 ft / 0 m

Approach Navaids

Runway Type Ident Frequency Range Bearing (true) Bearing (mag) Slope Elevation
06 Localiser IQB 109.50 MHz 18 nm / 33 km 44.33° 60.13° - 197 ft / 60 m (AMSL)
06 Glidescope IQB 109.50 MHz 18 nm / 33 km 42.00° 57.80° 3.00° 233 ft / 71 m (AMSL)

Popular Alternatives